Time;durP1;ratioP1;P1;durP2;ratioP2;P2;SDS_P1;SDS_P2;PMS_P1;PMS_P2;Temp;Humidity;BMP_temperature;BMP_pressure;BME280_temperature;BME280_humidity;BME280_pressure;Samples;Min_cycle;Max_cycle;Signal;HPM_P1;HPM_P2
2023/04/30 00:00:20;;;;;;;18.77;6.85;;;7.30;99.90;;;;;;5052893;28;20053;-76
2023/04/30 00:02:46;;;;;;;16.40;6.78;;;7.30;99.90;;;;;;5053334;28;20045;-76
2023/04/30 00:05:11;;;;;;;20.70;7.03;;;7.20;99.90;;;;;;5054674;28;20517;-76
2023/04/30 00:07:41;;;;;;;21.95;7.00;;;7.20;99.90;;;;;;5052656;28;20088;-74
2023/04/30 00:10:10;;;;;;;17.30;7.18;;;7.10;99.90;;;;;;5053908;28;20127;-75
2023/04/30 00:12:37;;;;;;;19.25;7.85;;;7.10;99.90;;;;;;5052605;28;20037;-76
2023/04/30 00:15:03;;;;;;;18.30;7.75;;;7.10;99.90;;;;;;5053948;28;20124;-75
2023/04/30 00:17:28;;;;;;;21.17;7.90;;;7.10;99.90;;;;;;5052488;28;20049;-76
2023/04/30 00:19:55;;;;;;;21.63;7.68;;;7.00;99.90;;;;;;5053687;28;20105;-75
2023/04/30 00:22:20;;;;;;;18.55;7.35;;;7.00;99.90;;;;;;5052837;28;20053;-74
2023/04/30 00:24:46;;;;;;;17.00;7.47;;;6.90;99.90;;;;;;5053668;28;20370;-76
2023/04/30 00:27:12;;;;;;;26.33;7.47;;;6.90;99.90;;;;;;5053575;28;20123;-78
2023/04/30 00:29:38;;;;;;;18.17;7.28;;;6.90;99.90;;;;;;5053973;28;20053;-77
2023/04/30 00:32:05;;;;;;;22.58;7.60;;;6.80;99.90;;;;;;5052270;28;20044;-76
2023/04/30 00:34:31;;;;;;;21.42;7.65;;;6.90;99.90;;;;;;5052225;28;20142;-76
2023/04/30 00:36:56;;;;;;;19.23;7.35;;;6.80;99.90;;;;;;5053347;28;20044;-75
2023/04/30 00:39:22;;;;;;;19.27;7.63;;;6.80;99.90;;;;;;5052192;28;20075;-77
2023/04/30 00:41:48;;;;;;;22.40;7.38;;;6.70;99.90;;;;;;5052019;28;20041;-76
2023/04/30 00:44:13;;;;;;;21.52;8.18;;;6.70;99.90;;;;;;5052902;28;20045;-75
2023/04/30 00:46:39;;;;;;;21.05;7.85;;;6.60;99.90;;;;;;5053293;28;20040;-76
2023/04/30 00:49:05;;;;;;;22.30;7.40;;;6.60;99.90;;;;;;5053680;28;20161;-77
2023/04/30 00:51:32;;;;;;;26.60;7.82;;;6.60;99.90;;;;;;5053957;28;20378;-77
2023/04/30 00:54:04;;;;;;;33.45;11.77;;;6.50;99.90;;;;;;5035905;28;20106;-76
2023/04/30 00:56:30;;;;;;;32.28;10.25;;;6.50;99.90;;;;;;5053910;28;20088;-77
2023/04/30 00:58:56;;;;;;;33.63;11.38;;;6.50;99.90;;;;;;5035581;28;20045;-76
2023/04/30 01:01:27;;;;;;;23.85;8.73;;;6.50;99.90;;;;;;5053054;28;20048;-76
2023/04/30 01:03:54;;;;;;;24.45;8.05;;;6.40;99.90;;;;;;5053068;28;20048;-77
2023/04/30 01:06:20;;;;;;;22.55;8.05;;;6.40;99.90;;;;;;5051772;28;20086;-76
2023/04/30 01:08:47;;;;;;;21.45;8.48;;;6.40;99.90;;;;;;5052088;28;20048;-77
2023/04/30 01:11:35;;;;;;;23.63;7.65;;;6.30;99.90;;;;;;5053350;28;20053;-76
2023/04/30 01:14:16;;;;;;;22.42;8.88;;;6.30;99.90;;;;;;5053886;28;20355;-77
2023/04/30 01:17:07;;;;;;;30.13;8.00;;;6.30;99.90;;;;;;5053331;28;20048;-77
2023/04/30 01:19:43;;;;;;;21.83;6.88;;;6.30;99.90;;;;;;5051735;28;20059;-76
2023/04/30 01:22:23;;;;;;;27.08;7.75;;;6.20;99.90;;;;;;5053837;28;20044;-76
2023/04/30 01:25:05;;;;;;;19.75;7.72;;;6.30;99.90;;;;;;5051982;28;20048;-77
2023/04/30 01:28:08;;;;;;;25.20;7.60;;;6.20;99.90;;;;;;5053555;28;20056;-78
2023/04/30 01:30:35;;;;;;;23.15;7.75;;;6.20;99.90;;;;;;5051286;28;20440;-76
2023/04/30 01:33:01;;;;;;;27.42;8.00;;;6.20;99.90;;;;;;5053312;28;20122;-76
2023/04/30 01:35:55;;;;;;;26.90;8.23;;;6.10;99.90;;;;;;5051598;28;20055;-76
2023/04/30 01:38:26;;;;;;;26.20;8.32;;;6.10;99.90;;;;;;5034865;28;20060;-75
2023/04/30 01:41:15;;;;;;;19.48;8.02;;;6.10;99.90;;;;;;5056783;28;20378;-77
2023/04/30 01:44:13;;;;;;;18.73;7.90;;;6.10;99.90;;;;;;5088261;28;20068;-76
2023/04/30 01:46:41;;;;;;;21.55;8.18;;;5.90;99.90;;;;;;5005766;28;20065;-76
2023/04/30 01:49:28;;;;;;;25.67;8.77;;;5.90;99.90;;;;;;5056760;28;20049;-75
2023/04/30 01:52:23;;;;;;;;;;;5.80;99.90;;;;;;5056139;28;20072;-76
2023/04/30 01:54:57;;;;;;;19.60;7.85;;;5.80;99.90;;;;;;5050534;28;20000;-76
2023/04/30 01:57:31;;;;;;;22.35;8.55;;;5.70;99.90;;;;;;5057103;28;20130;-75
2023/04/30 01:59:57;;;;;;;37.50;10.75;;;5.70;99.90;;;;;;5056061;28;20052;-76
2023/04/30 02:02:22;;;;;;;78.68;17.00;;;5.70;99.90;;;;;;5054633;28;20556;-74
2023/04/30 02:04:48;;;;;;;73.03;16.85;;;5.70;99.90;;;;;;5056265;28;20146;-76
2023/04/30 02:07:37;;;;;;;75.82;15.07;;;5.70;99.90;;;;;;5056130;28;20170;-76
2023/04/30 02:10:04;;;;;;;71.40;15.02;;;5.70;99.90;;;;;;5055640;28;20075;-76
2023/04/30 02:12:29;;;;;;;53.63;13.15;;;5.70;99.90;;;;;;5056231;28;20049;-76
2023/04/30 02:14:55;;;;;;;69.50;15.68;;;5.70;99.90;;;;;;5055327;28;20048;-76
2023/04/30 02:17:21;;;;;;;65.53;13.63;;;5.70;99.90;;;;;;5038723;28;20132;-76
2023/04/30 02:19:47;;;;;;;73.28;14.82;;;5.60;99.90;;;;;;5056135;28;20045;-76
2023/04/30 02:22:12;;;;;;;61.42;13.45;;;5.60;99.90;;;;;;5054720;28;20041;-76
2023/04/30 02:24:38;;;;;;;43.55;10.93;;;5.60;99.90;;;;;;5054760;28;20468;-78
2023/04/30 02:27:04;;;;;;;28.38;8.77;;;5.60;99.90;;;;;;5054737;28;20073;-77
2023/04/30 02:29:30;;;;;;;27.73;9.00;;;5.50;99.90;;;;;;5037927;28;20378;-77
2023/04/30 02:31:57;;;;;;;23.58;8.55;;;5.40;99.90;;;;;;5055827;28;20118;-77
2023/04/30 02:34:23;;;;;;;23.27;8.32;;;5.40;99.90;;;;;;5055736;28;20049;-76
2023/04/30 02:36:49;;;;;;;23.88;8.52;;;5.30;99.90;;;;;;5037902;28;20474;-76
2023/04/30 02:39:15;;;;;;;25.60;9.15;;;5.30;99.90;;;;;;5055645;28;20045;-77
2023/04/30 02:41:40;;;;;;;21.52;8.35;;;5.30;99.90;;;;;;5054234;28;20048;-76
2023/04/30 02:44:06;;;;;;;25.70;8.48;;;5.20;99.90;;;;;;5054205;28;20056;-76
2023/04/30 02:46:32;;;;;;;32.45;8.63;;;5.20;99.90;;;;;;5055543;28;20041;-77
2023/04/30 02:48:57;;;;;;;53.38;15.35;;;5.20;99.90;;;;;;5054185;28;20051;-77
2023/04/30 02:51:23;;;;;;;45.80;15.90;;;5.10;99.90;;;;;;5054056;28;20091;-77
2023/04/30 02:53:49;;;;;;;46.83;13.63;;;5.10;99.90;;;;;;5055427;28;20041;-75
2023/04/30 02:56:15;;;;;;;36.58;9.82;;;5.10;99.90;;;;;;5038859;28;20044;-75
2023/04/30 02:58:40;;;;;;;33.50;11.68;;;5.20;99.90;;;;;;5056713;28;20186;-75
2023/04/30 03:01:06;;;;;;;40.47;14.55;;;5.20;99.90;;;;;;5058962;28;20086;-77
2023/04/30 03:03:32;;;;;;;38.20;12.85;;;5.20;99.90;;;;;;5056443;28;20048;-75
2023/04/30 03:05:58;;;;;;;27.88;10.38;;;5.10;99.90;;;;;;5055396;28;20055;-75
2023/04/30 03:08:27;;;;;;;28.05;9.45;;;5.10;99.90;;;;;;5054578;28;20037;-77
2023/04/30 03:10:52;;;;;;;23.95;9.45;;;5.10;99.90;;;;;;5055147;28;20533;-76
2023/04/30 03:13:18;;;;;;;24.10;9.15;;;5.00;99.90;;;;;;5055681;28;20175;-76
2023/04/30 03:15:44;;;;;;;27.23;8.55;;;5.00;99.90;;;;;;5055007;28;20041;-76
2023/04/30 03:18:10;;;;;;;27.50;8.75;;;5.00;99.90;;;;;;5055343;28;20135;-77
2023/04/30 03:20:36;;;;;;;25.65;8.35;;;5.00;99.90;;;;;;5056313;28;20144;-76
2023/04/30 03:23:02;;;;;;;24.92;9.20;;;4.90;99.90;;;;;;5055526;28;20052;-77
2023/04/30 03:25:27;;;;;;;24.25;9.07;;;4.90;99.90;;;;;;5055791;28;20128;-76
2023/04/30 03:27:53;;;;;;;31.20;9.40;;;4.90;99.90;;;;;;5053638;28;20132;-75
2023/04/30 03:30:19;;;;;;;29.08;9.27;;;4.90;99.90;;;;;;5055422;28;20135;-76
2023/04/30 03:32:45;;;;;;;27.10;9.00;;;4.90;99.90;;;;;;5054955;28;20049;-76
2023/04/30 03:35:11;;;;;;;27.88;8.82;;;4.90;99.90;;;;;;5053456;28;20144;-75
2023/04/30 03:37:36;;;;;;;28.25;8.52;;;4.80;99.90;;;;;;5037675;28;20053;-76
2023/04/30 03:40:03;;;;;;;28.42;9.02;;;4.80;99.90;;;;;;5070046;28;20084;-77
2023/04/30 03:42:29;;;;;;;32.83;9.13;;;4.80;99.90;;;;;;5054544;28;20049;-77
2023/04/30 03:44:55;;;;;;;32.22;10.93;;;4.80;99.90;;;;;;5036855;28;20048;-77
2023/04/30 03:47:20;;;;;;;27.50;9.00;;;4.80;99.90;;;;;;5053990;28;20053;-76
2023/04/30 03:49:53;;;;;;;25.90;9.35;;;4.70;99.90;;;;;;5054272;28;20454;-76
2023/04/30 03:52:19;;;;;;;26.63;9.13;;;4.70;99.90;;;;;;5054216;28;20045;-76
2023/04/30 03:54:45;;;;;;;31.75;9.95;;;4.70;99.90;;;;;;5054196;28;20049;-77
2023/04/30 03:57:12;;;;;;;32.33;9.77;;;4.70;99.90;;;;;;5069665;28;20071;-76
2023/04/30 03:59:39;;;;;;;28.83;9.57;;;4.70;99.90;;;;;;5036670;28;20560;-76
2023/04/30 04:02:06;;;;;;;30.73;10.25;;;4.60;99.90;;;;;;5053251;28;20055;-77
2023/04/30 04:04:32;;;;;;;36.40;12.48;;;4.60;99.90;;;;;;5054072;28;20045;-76
2023/04/30 04:06:58;;;;;;;27.03;10.77;;;4.70;99.90;;;;;;5052799;28;20163;-76
2023/04/30 04:09:24;;;;;;;28.83;10.43;;;4.60;99.90;;;;;;5036852;28;20145;-76
2023/04/30 04:11:49;;;;;;;32.60;10.27;;;4.60;99.90;;;;;;5054059;28;20041;-76
2023/04/30 04:14:15;;;;;;;31.30;11.43;;;4.60;99.90;;;;;;5053101;28;20602;-78
2023/04/30 04:16:41;;;;;;;34.00;12.00;;;4.60;99.90;;;;;;5069564;28;20049;-73
2023/04/30 04:19:07;;;;;;;30.20;10.68;;;4.60;99.90;;;;;;5052690;28;20103;-76
2023/04/30 04:21:33;;;;;;;32.88;11.07;;;4.60;99.90;;;;;;5036408;28;20459;-76
2023/04/30 04:24:01;;;;;;;30.33;10.80;;;4.70;99.90;;;;;;5052608;28;20128;-77
2023/04/30 04:26:27;;;;;;;40.30;12.55;;;4.60;99.90;;;;;;5052632;28;20057;-76
2023/04/30 04:28:53;;;;;;;35.30;12.90;;;4.60;99.90;;;;;;5052667;28;20041;-76
2023/04/30 04:31:19;;;;;;;34.20;12.52;;;4.80;99.90;;;;;;5052941;28;20064;-76
2023/04/30 04:33:45;;;;;;;35.85;12.77;;;4.80;99.90;;;;;;5055032;28;20080;-75
2023/04/30 04:36:11;;;;;;;36.42;12.90;;;4.90;99.90;;;;;;5053128;28;20045;-76
2023/04/30 04:38:37;;;;;;;33.78;12.93;;;5.00;99.90;;;;;;5053037;28;20060;-75
2023/04/30 04:41:03;;;;;;;42.63;13.02;;;5.00;99.90;;;;;;5053581;28;20060;-76
2023/04/30 04:43:28;;;;;;;39.03;13.40;;;5.00;99.90;;;;;;5053482;28;20045;-76
2023/04/30 04:45:54;;;;;;;37.35;12.45;;;5.10;99.90;;;;;;5054288;28;20045;-77
2023/04/30 04:48:20;;;;;;;35.00;12.68;;;5.00;99.90;;;;;;5053525;28;20057;-77
2023/04/30 04:50:46;;;;;;;36.35;13.52;;;5.10;99.90;;;;;;5053541;28;20178;-74
2023/04/30 04:53:12;;;;;;;33.10;12.82;;;5.10;99.90;;;;;;5053720;28;20047;-77
2023/04/30 04:55:38;;;;;;;31.80;12.82;;;5.10;99.90;;;;;;5053892;28;20480;-75
2023/04/30 04:58:03;;;;;;;40.70;13.20;;;5.10;99.90;;;;;;5054558;28;20040;-76
2023/04/30 05:00:29;;;;;;;37.38;14.20;;;5.20;99.90;;;;;;5054105;28;20136;-76
2023/04/30 05:02:55;;;;;;;36.65;13.73;;;5.30;99.90;;;;;;5037217;28;20041;-76
2023/04/30 05:05:21;;;;;;;42.10;14.05;;;5.40;99.90;;;;;;5053385;28;20110;-76
2023/04/30 05:07:49;;;;;;;35.80;14.68;;;5.50;99.90;;;;;;5054013;28;20045;-76
2023/04/30 05:10:15;;;;;;;39.20;15.07;;;5.60;99.90;;;;;;5054178;28;20049;-76
2023/04/30 05:12:41;;;;;;;32.75;12.65;;;5.60;99.90;;;;;;5051927;28;20052;-77
2023/04/30 05:15:07;;;;;;;31.85;13.52;;;5.70;99.90;;;;;;5057490;28;20041;-76
2023/04/30 05:17:32;;;;;;;32.53;12.25;;;5.70;99.90;;;;;;5057249;28;20568;-76
2023/04/30 05:19:58;;;;;;;32.17;11.90;;;5.80;99.90;;;;;;5057269;28;20084;-75
2023/04/30 05:22:24;;;;;;;33.97;12.02;;;5.90;99.90;;;;;;5056543;28;20053;-76
2023/04/30 05:24:51;;;;;;;31.30;11.35;;;5.90;99.90;;;;;;5057455;28;20133;-77
2023/04/30 05:27:17;;;;;;;;;;;6.00;99.90;;;;;;5057787;28;20127;-76
2023/04/30 05:29:43;;;;;;;29.85;11.68;;;6.10;99.90;;;;;;5057420;28;20390;-76
2023/04/30 05:32:08;;;;;;;26.27;11.07;;;6.10;99.90;;;;;;5055839;28;20045;-76
2023/04/30 05:34:34;;;;;;;30.30;11.40;;;6.10;99.90;;;;;;5055952;28;20133;-79
2023/04/30 05:37:00;;;;;;;27.38;11.98;;;6.20;99.90;;;;;;5057731;28;20116;-76
2023/04/30 05:39:26;;;;;;;35.72;11.77;;;6.20;99.90;;;;;;5055730;28;20045;-76
2023/04/30 05:41:52;;;;;;;32.55;12.20;;;6.30;99.90;;;;;;5056854;28;20040;-78
2023/04/30 05:44:18;;;;;;;33.17;12.02;;;6.40;99.90;;;;;;5056906;28;20496;-76
2023/04/30 05:46:43;;;;;;;40.92;12.32;;;6.60;99.90;;;;;;5056647;28;20040;-76
2023/04/30 05:49:09;;;;;;;33.20;11.90;;;6.80;99.90;;;;;;5039260;28;20091;-76
2023/04/30 05:51:35;;;;;;;32.17;10.50;;;7.00;99.90;;;;;;5056363;28;20118;-79
2023/04/30 05:54:00;;;;;;;29.02;9.68;;;7.20;99.90;;;;;;5038845;28;20049;-77
2023/04/30 05:56:26;;;;;;;25.90;9.77;;;7.30;99.90;;;;;;5056543;28;20164;-75
2023/04/30 05:58:52;;;;;;;28.40;9.25;;;7.30;99.90;;;;;;5056519;28;20388;-76
2023/04/30 06:01:22;;;;;;;29.80;8.48;;;7.40;99.90;;;;;;5056465;28;20138;-77
2023/04/30 06:03:47;;;;;;;21.98;7.15;;;7.50;99.90;;;;;;5055406;28;20045;-77
2023/04/30 06:06:13;;;;;;;23.83;7.03;;;7.50;99.90;;;;;;5055858;28;20045;-76
2023/04/30 06:08:43;;;;;;;22.55;6.93;;;7.60;99.90;;;;;;5056153;28;20056;-75
2023/04/30 06:11:10;;;;;;;24.00;6.75;;;7.70;99.90;;;;;;5056581;28;20053;-78
2023/04/30 06:13:36;;;;;;;21.80;7.53;;;7.70;99.90;;;;;;5072599;28;20048;-77
2023/04/30 06:16:01;;;;;;;24.30;6.40;;;7.80;99.90;;;;;;5056031;28;20051;-78
2023/04/30 06:18:27;;;;;;;19.67;6.60;;;7.80;99.90;;;;;;5038389;28;20111;-77
2023/04/30 06:20:53;;;;;;;27.10;6.95;;;7.90;99.90;;;;;;5054866;28;20495;-76
2023/04/30 06:23:18;;;;;;;19.40;7.55;;;8.00;99.90;;;;;;5054877;28;20037;-74
2023/04/30 06:25:44;;;;;;;21.48;6.65;;;8.00;99.90;;;;;;5054884;28;20053;-77
2023/04/30 06:28:10;;;;;;;18.58;5.45;;;8.20;99.90;;;;;;5054503;28;20040;-76
2023/04/30 06:30:36;;;;;;;21.35;5.18;;;8.20;99.90;;;;;;5054611;28;20460;-76
2023/04/30 06:33:02;;;;;;;21.42;6.18;;;8.30;99.90;;;;;;5055024;28;20045;-77
2023/04/30 06:35:27;;;;;;;24.38;5.15;;;8.30;99.90;;;;;;5055766;28;20315;-76
2023/04/30 06:37:53;;;;;;;16.63;4.78;;;8.40;99.90;;;;;;5054620;28;20075;-77
2023/04/30 06:40:19;;;;;;;17.40;4.68;;;8.40;99.90;;;;;;5054560;28;20056;-78
2023/04/30 06:42:45;;;;;;;18.88;5.28;;;8.50;99.90;;;;;;5055524;28;20397;-77
2023/04/30 06:45:13;;;;;;;19.20;5.10;;;8.50;99.90;;;;;;5054458;28;20057;-76
2023/04/30 06:47:41;;;;;;;16.83;4.90;;;8.50;99.90;;;;;;5037872;28;20041;-76
2023/04/30 06:50:08;;;;;;;21.00;5.05;;;8.50;99.90;;;;;;5055364;28;20107;-75
2023/04/30 06:52:33;;;;;;;20.77;5.20;;;8.60;99.90;;;;;;5055776;28;20094;-77
2023/04/30 06:54:59;;;;;;;20.67;4.90;;;8.70;99.90;;;;;;5054463;28;20424;-76
2023/04/30 06:57:26;;;;;;;17.02;4.22;;;8.70;99.90;;;;;;5055130;28;20539;-76
2023/04/30 06:59:52;;;;;;;17.33;4.97;;;8.80;99.90;;;;;;5054314;28;20071;-77
2023/04/30 07:02:18;;;;;;;12.32;4.35;;;8.80;99.90;;;;;;5055815;28;20045;-75
2023/04/30 07:04:44;;;;;;;18.55;5.05;;;8.80;99.90;;;;;;5055330;28;20371;-77
2023/04/30 07:07:10;;;;;;;15.93;4.70;;;8.90;99.90;;;;;;5055553;28;20061;-78
2023/04/30 07:09:36;;;;;;;16.50;4.55;;;9.00;99.90;;;;;;5037772;28;20107;-75
2023/04/30 07:12:02;;;;;;;17.45;5.00;;;9.10;99.90;;;;;;5055148;28;20060;-77
2023/04/30 07:14:28;;;;;;;16.50;4.85;;;9.10;99.90;;;;;;5055256;28;20056;-77
2023/04/30 07:16:54;;;;;;;17.42;4.25;;;9.20;99.90;;;;;;5054886;28;20044;-74
2023/04/30 07:19:19;;;;;;;16.27;4.43;;;9.20;99.90;;;;;;5054816;28;20049;-77
2023/04/30 07:21:45;;;;;;;19.38;5.20;;;9.30;99.90;;;;;;5053621;28;20132;-77
2023/04/30 07:24:11;;;;;;;20.60;5.05;;;9.30;99.90;;;;;;5053639;28;20056;-76
2023/04/30 07:26:37;;;;;;;25.33;5.22;;;9.40;99.90;;;;;;5053629;28;20316;-75
2023/04/30 07:29:03;;;;;;;15.88;4.03;;;9.50;99.90;;;;;;5054961;28;20139;-78
2023/04/30 07:31:29;;;;;;;16.03;4.03;;;9.60;99.90;;;;;;5053935;28;20169;-75
2023/04/30 07:33:54;;;;;;;12.20;3.70;;;9.70;99.90;;;;;;5053282;28;20083;-77
2023/04/30 07:36:21;;;;;;;23.35;4.28;;;9.70;99.90;;;;;;5036973;28;20045;-77
2023/04/30 07:38:47;;;;;;;18.02;3.95;;;9.80;99.90;;;;;;5053333;28;20123;-76
2023/04/30 07:41:13;;;;;;;18.50;3.78;;;9.90;99.90;;;;;;5053116;28;20135;-76
2023/04/30 07:43:38;;;;;;;33.92;5.03;;;10.00;99.90;;;;;;5054904;28;20041;-76
2023/04/30 07:46:04;;;;;;;20.92;3.92;;;10.00;99.90;;;;;;5054352;28;20497;-76
2023/04/30 07:48:30;;;;;;;15.50;3.63;;;10.10;99.90;;;;;;5053048;28;20056;-76
2023/04/30 07:50:56;;;;;;;21.08;3.35;;;10.20;99.90;;;;;;5054014;28;20051;-76
2023/04/30 07:53:24;;;;;;;16.50;3.50;;;10.20;99.90;;;;;;5054018;28;20041;-78
2023/04/30 07:55:50;;;;;;;19.73;4.75;;;10.20;99.90;;;;;;5052810;28;20053;-76
2023/04/30 07:58:16;;;;;;;13.82;3.53;;;10.30;99.90;;;;;;5054600;28;20192;-75
2023/04/30 08:00:42;;;;;;;13.05;4.63;;;10.30;99.90;;;;;;5036289;28;20437;-76
2023/04/30 08:03:07;;;;;;;18.98;4.43;;;10.40;99.90;;;;;;5052674;28;20040;-76
2023/04/30 08:05:33;;;;;;;16.77;3.70;;;10.30;99.90;;;;;;5052764;28;20036;-76
2023/04/30 08:07:59;;;;;;;19.88;3.60;;;10.50;99.90;;;;;;5052594;28;20477;-77
2023/04/30 08:10:25;;;;;;;14.00;4.47;;;10.50;99.90;;;;;;5036108;28;20056;-76
2023/04/30 08:12:52;;;;;;;16.60;4.15;;;10.60;99.90;;;;;;5036363;28;20045;-76
2023/04/30 08:15:20;;;;;;;27.67;5.50;;;10.60;99.90;;;;;;5052591;28;20056;-76
2023/04/30 08:17:50;;;;;;;15.35;4.18;;;10.70;99.90;;;;;;5053042;28;20362;-76
2023/04/30 08:20:16;;;;;;;17.63;3.92;;;10.70;99.90;;;;;;5069876;28;20056;-75
2023/04/30 08:22:44;;;;;;;15.88;3.85;;;10.80;99.90;;;;;;5052813;28;20045;-76
2023/04/30 08:25:11;;;;;;;18.25;4.10;;;10.90;99.90;;;;;;5036741;28;20064;-77
2023/04/30 08:27:38;;;;;;;15.98;3.63;;;10.90;99.90;;;;;;5053533;28;20048;-76
2023/04/30 08:30:05;;;;;;;19.08;3.72;;;11.10;99.90;;;;;;5053653;28;20444;-76
2023/04/30 08:32:33;;;;;;;;;;;11.20;99.90;;;;;;5053774;28;20049;-76
2023/04/30 08:34:58;;;;;;;12.80;4.13;;;11.20;99.90;;;;;;5085991;28;19964;-76
2023/04/30 08:37:24;;;;;;;15.45;3.95;;;11.30;99.90;;;;;;5036406;28;20091;-76
2023/04/30 08:39:50;;;;;;;10.30;2.80;;;11.50;99.90;;;;;;5052152;28;20055;-76
2023/04/30 08:42:17;;;;;;;16.13;3.70;;;11.50;99.90;;;;;;5053222;28;20045;-76
2023/04/30 08:44:45;;;;;;;15.23;3.63;;;11.50;99.90;;;;;;5052110;28;20151;-75
2023/04/30 08:47:14;;;;;;;16.52;4.25;;;11.50;99.90;;;;;;5052049;28;20052;-77
2023/04/30 08:49:40;;;;;;;12.05;3.50;;;11.50;99.90;;;;;;5052060;28;20088;-77
2023/04/30 08:52:07;;;;;;;18.23;4.00;;;11.60;99.90;;;;;;5051642;28;20047;-75
2023/04/30 08:54:35;;;;;;;12.73;4.03;;;11.70;99.90;;;;;;5053075;28;20049;-77
2023/04/30 08:57:01;;;;;;;13.68;4.32;;;11.80;99.90;;;;;;5051969;28;20079;-75
2023/04/30 08:59:27;;;;;;;20.67;4.15;;;11.80;99.90;;;;;;5052049;28;20076;-76
2023/04/30 09:01:53;;;;;;;18.70;3.88;;;11.90;99.90;;;;;;5053180;28;20472;-75
2023/04/30 09:04:18;;;;;;;14.75;3.75;;;11.70;99.90;;;;;;5053012;28;20045;-75
2023/04/30 09:06:44;;;;;;;17.88;4.68;;;11.80;99.90;;;;;;5052974;28;20397;-77
2023/04/30 09:09:12;;;;;;;15.77;4.15;;;11.80;99.90;;;;;;5035557;28;20056;-75
2023/04/30 09:11:38;;;;;;;17.67;3.65;;;11.80;99.90;;;;;;5052092;28;20386;-74
2023/04/30 09:14:04;;;;;;;14.05;3.28;;;11.70;99.90;;;;;;5051640;28;20063;-73
2023/04/30 09:16:44;;;;;;;11.60;3.05;;;11.70;99.90;;;;;;5052921;28;20432;-74
2023/04/30 09:19:25;;;;;;;18.92;3.17;;;11.80;99.90;;;;;;5053371;28;20385;-74
2023/04/30 09:21:51;;;;;;;16.55;4.20;;;11.90;99.90;;;;;;5036560;28;20063;-74
2023/04/30 09:24:16;;;;;;;14.95;3.63;;;11.80;99.90;;;;;;5053746;28;20493;-74
2023/04/30 09:26:43;;;;;;;18.83;4.43;;;12.00;99.90;;;;;;5054379;28;20044;-75
2023/04/30 09:29:09;;;;;;;16.23;4.83;;;12.00;99.90;;;;;;5035668;28;20137;-76
2023/04/30 09:31:41;;;;;;;13.60;3.67;;;12.00;99.90;;;;;;5050867;28;20111;-74
2023/04/30 09:34:07;;;;;;;13.02;4.38;;;11.80;99.90;;;;;;5053050;28;20405;-75
2023/04/30 09:36:33;;;;;;;22.63;4.88;;;11.80;99.90;;;;;;5035737;28;20052;-73
2023/04/30 09:39:25;;;;;;;17.38;5.13;;;11.90;99.90;;;;;;5034588;28;20076;-75
2023/04/30 09:41:51;;;;;;;27.92;5.22;;;11.90;99.90;;;;;;5049721;28;20057;-74
2023/04/30 09:44:36;;;;;;;19.30;3.95;;;12.10;99.90;;;;;;5035390;28;20440;-74
2023/04/30 09:47:02;;;;;;;13.18;3.55;;;12.20;99.90;;;;;;5035096;28;20134;-73
2023/04/30 09:49:28;;;;;;;15.80;4.13;;;12.30;99.90;;;;;;5052596;28;20092;-74
2023/04/30 09:52:00;;;;;;;16.05;4.35;;;12.40;99.90;;;;;;5034965;28;20045;-75
2023/04/30 09:54:30;;;;;;;18.73;4.57;;;12.40;99.90;;;;;;5051382;28;20095;-73
2023/04/30 09:56:58;;;;;;;17.38;4.03;;;12.40;99.90;;;;;;5035402;28;20488;-76
2023/04/30 09:59:29;;;;;;;17.08;4.78;;;12.50;99.90;;;;;;5052654;28;20090;-74
2023/04/30 10:01:58;;;;;;;14.75;4.13;;;12.40;99.90;;;;;;5055600;28;20053;-77
2023/04/30 10:04:24;;;;;;;12.95;3.78;;;12.50;99.90;;;;;;5056326;28;20051;-77
2023/04/30 10:06:53;;;;;;;17.23;4.28;;;12.60;99.90;;;;;;5056909;28;20084;-74
2023/04/30 10:09:20;;;;;;;17.45;3.45;;;12.80;99.90;;;;;;5056776;28;20432;-77
2023/04/30 10:11:47;;;;;;;13.30;3.83;;;12.90;99.90;;;;;;5055761;28;20515;-76
2023/04/30 10:14:15;;;;;;;12.93;3.72;;;;;;;;;;5054867;28;20052;-76
2023/04/30 10:16:50;;;;;;;12.68;3.70;;;13.20;99.90;;;;;;5056627;28;20385;-76
2023/04/30 10:19:25;;;;;;;9.85;3.60;;;;;;;;;;5056939;28;20407;-74
2023/04/30 10:21:52;;;;;;;17.45;5.20;;;;;;;;;;5054855;28;20132;-76
2023/04/30 10:24:19;;;;;;;16.15;4.53;;;12.80;99.90;;;;;;5055013;28;20111;-76
2023/04/30 10:26:46;;;;;;;12.73;4.28;;;13.00;99.90;;;;;;5054567;28;20506;-75
2023/04/30 10:29:13;;;;;;;;;;;13.00;99.90;;;;;;5054966;28;20061;-75
2023/04/30 10:31:42;;;;;;;11.70;3.83;;;13.10;99.90;;;;;;5037890;28;20038;-75
2023/04/30 10:34:32;;;;;;;19.45;4.60;;;13.20;99.90;;;;;;5054546;28;20048;-75
2023/04/30 10:37:14;;;;;;;20.17;4.40;;;13.10;99.90;;;;;;5056200;28;20056;-75
2023/04/30 10:39:40;;;;;;;12.88;4.32;;;13.20;99.90;;;;;;5055626;28;20088;-75
2023/04/30 10:42:10;;;;;;;17.90;4.28;;;13.30;99.90;;;;;;5055377;28;20085;-76
2023/04/30 10:44:36;;;;;;;13.68;4.28;;;13.50;99.90;;;;;;5055577;28;20079;-74
2023/04/30 10:47:03;;;;;;;15.27;4.55;;;13.60;99.90;;;;;;5056069;28;20458;-73
2023/04/30 10:49:29;;;;;;;;;;;13.70;99.90;;;;;;5055891;28;20037;-74
2023/04/30 10:51:59;;;;;;;15.75;3.85;;;13.80;99.90;;;;;;5056169;28;19921;-73
2023/04/30 10:54:31;;;;;;;17.00;4.38;;;13.80;99.90;;;;;;5055680;28;20041;-76
2023/04/30 10:57:11;;;;;;;11.60;4.05;;;13.80;99.90;;;;;;5054882;28;20045;-74
2023/04/30 10:59:37;;;;;;;19.15;4.47;;;13.90;99.90;;;;;;5055447;28;20072;-75
2023/04/30 11:02:03;;;;;;;12.02;4.03;;;13.70;99.90;;;;;;5054967;28;20075;-75
2023/04/30 11:04:29;;;;;;;11.80;3.78;;;13.80;99.90;;;;;;5056151;28;20044;-73
2023/04/30 11:07:02;;;;;;;17.00;4.10;;;13.90;99.90;;;;;;5038052;28;20494;-74
2023/04/30 11:09:37;;;;;;;16.85;5.53;;;14.00;99.90;;;;;;5055248;28;20512;-75
2023/04/30 11:12:09;;;;;;;20.13;4.35;;;14.10;99.90;;;;;;5037383;28;20378;-74
2023/04/30 11:14:42;;;;;;;10.80;4.10;;;14.10;99.90;;;;;;5038366;28;20492;-76
2023/04/30 11:17:11;;;;;;;14.50;4.07;;;14.10;99.90;;;;;;5053876;28;20059;-75
2023/04/30 11:19:46;;;;;;;13.23;4.20;;;14.20;99.90;;;;;;5054879;28;20189;-73
2023/04/30 11:22:12;;;;;;;10.40;3.83;;;14.40;99.90;;;;;;5053757;28;20051;-75
2023/04/30 11:24:59;;;;;;;16.58;4.43;;;14.40;99.90;;;;;;5054822;28;20045;-73
2023/04/30 11:27:26;;;;;;;18.80;3.78;;;;;;;;;;5054780;28;20521;-73
2023/04/30 11:29:52;;;;;;;;;;;;;;;;;;5054488;28;20465;-75
2023/04/30 11:32:18;;;;;;;14.15;4.55;;;;;;;;;;5087959;28;19920;-74
2023/04/30 11:34:44;;;;;;;11.70;3.60;;;14.30;99.90;;;;;;5054589;28;20045;-72
2023/04/30 11:37:36;;;;;;;12.63;3.55;;;14.50;99.90;;;;;;5053452;28;20059;-75
2023/04/30 11:40:11;;;;;;;12.32;3.95;;;14.60;99.90;;;;;;5055182;28;20435;-76
2023/04/30 11:42:39;;;;;;;10.68;3.55;;;14.70;99.90;;;;;;5055395;28;20389;-74
2023/04/30 11:45:06;;;;;;;;;;;14.60;99.90;;;;;;5055396;28;20048;-74
2023/04/30 11:47:53;;;;;;;12.75;3.38;;;14.70;99.90;;;;;;5036909;28;19981;-76
2023/04/30 11:50:26;;;;;;;10.80;2.92;;;14.80;99.90;;;;;;5054410;28;20045;-74
2023/04/30 11:52:52;;;;;;;10.35;3.00;;;14.70;99.90;;;;;;5054136;28;20050;-74
2023/04/30 11:55:21;;;;;;;9.10;2.92;;;14.70;99.90;;;;;;5036460;28;20037;-74
2023/04/30 11:57:52;;;;;;;11.75;2.80;;;14.80;99.90;;;;;;5036210;28;20056;-75
2023/04/30 12:00:26;;;;;;;12.35;2.95;;;14.50;99.90;;;;;;5036402;28;20048;-75
2023/04/30 12:02:52;;;;;;;11.57;2.72;;;14.70;99.90;;;;;;5053681;28;20045;-76
2023/04/30 12:05:20;;;;;;;12.80;3.10;;;14.60;99.90;;;;;;5053615;28;20556;-77
2023/04/30 12:07:51;;;;;;;10.75;3.28;;;14.80;99.90;;;;;;5053931;28;20048;-76
2023/04/30 12:10:20;;;;;;;11.55;3.00;;;14.80;99.90;;;;;;5053757;28;20055;-75
2023/04/30 12:12:48;;;;;;;12.27;3.85;;;14.90;99.90;;;;;;5052640;28;20037;-76
2023/04/30 12:15:16;;;;;;;13.25;2.97;;;14.90;99.90;;;;;;5053834;28;20052;-75
2023/04/30 12:17:44;;;;;;;11.00;2.70;;;15.00;99.90;;;;;;5053698;28;20041;-75
2023/04/30 12:20:14;;;;;;;8.95;2.90;;;15.00;99.90;;;;;;5052394;28;20120;-74
2023/04/30 12:22:44;;;;;;;11.95;3.33;;;15.10;99.90;;;;;;5052343;28;20174;-76
2023/04/30 12:25:21;;;;;;;11.57;2.85;;;14.80;99.90;;;;;;5052386;28;20087;-76
2023/04/30 12:27:49;;;;;;;8.68;2.85;;;15.00;99.90;;;;;;5036252;28;20088;-74
2023/04/30 12:30:18;;;;;;;10.13;3.35;;;15.10;99.90;;;;;;5052772;28;20071;-74
2023/04/30 12:32:48;;;;;;;13.63;3.33;;;15.20;99.90;;;;;;5052407;28;20049;-74
2023/04/30 12:35:16;;;;;;;9.07;3.20;;;15.00;99.90;;;;;;5053459;28;20408;-75
2023/04/30 12:37:50;;;;;;;7.95;2.92;;;15.10;99.90;;;;;;5052451;28;20400;-75
2023/04/30 12:40:18;;;;;;;17.67;3.60;;;15.30;99.90;;;;;;5053914;28;20055;-76
2023/04/30 12:42:45;;;;;;;12.95;3.00;;;15.30;99.90;;;;;;5053788;28;20552;-75
2023/04/30 12:45:12;;;;;;;8.40;2.95;;;15.40;99.90;;;;;;5052553;28;20056;-75
2023/04/30 12:47:39;;;;;;;8.95;2.75;;;15.40;99.90;;;;;;5035715;28;20064;-77
2023/04/30 12:50:11;;;;;;;10.15;2.72;;;15.60;99.90;;;;;;5052910;28;20366;-74